sensor_id;sensor_type;location;lat;lon;timestamp;P1;durP1;ratioP1;P2;durP2;ratioP2
19969;SDS011;10146;47.754;9.566;2022-07-18T00:01:41;2.60;;;2.40;;
19969;SDS011;10146;47.754;9.566;2022-07-18T00:04:07;2.30;;;2.10;;
19969;SDS011;10146;47.754;9.566;2022-07-18T00:06:33;2.95;;;2.15;;
19969;SDS011;10146;47.754;9.566;2022-07-18T00:08:58;3.85;;;2.50;;
19969;SDS011;10146;47.754;9.566;2022-07-18T00:11:24;3.35;;;2.35;;
19969;SDS011;10146;47.754;9.566;2022-07-18T00:13:50;3.67;;;2.17;;
19969;SDS011;10146;47.754;9.566;2022-07-18T00:16:16;2.38;;;2.17;;
19969;SDS011;10146;47.754;9.566;2022-07-18T00:18:42;2.92;;;2.10;;
19969;SDS011;10146;47.754;9.566;2022-07-18T00:21:08;2.58;;;2.13;;
19969;SDS011;10146;47.754;9.566;2022-07-18T00:23:34;5.03;;;2.30;;
19969;SDS011;10146;47.754;9.566;2022-07-18T00:26:00;2.40;;;2.25;;
19969;SDS011;10146;47.754;9.566;2022-07-18T00:28:26;2.47;;;2.20;;
19969;SDS011;10146;47.754;9.566;2022-07-18T00:30:52;2.88;;;2.05;;
19969;SDS011;10146;47.754;9.566;2022-07-18T00:33:18;2.78;;;2.22;;
19969;SDS011;10146;47.754;9.566;2022-07-18T00:35:43;5.13;;;2.33;;
19969;SDS011;10146;47.754;9.566;2022-07-18T00:38:09;2.22;;;2.10;;
19969;SDS011;10146;47.754;9.566;2022-07-18T00:40:34;3.50;;;1.90;;
19969;SDS011;10146;47.754;9.566;2022-07-18T00:43:00;5.05;;;2.22;;
19969;SDS011;10146;47.754;9.566;2022-07-18T00:45:26;3.88;;;2.00;;
19969;SDS011;10146;47.754;9.566;2022-07-18T00:47:51;2.75;;;2.53;;
19969;SDS011;10146;47.754;9.566;2022-07-18T00:50:18;3.05;;;2.20;;
19969;SDS011;10146;47.754;9.566;2022-07-18T00:52:46;2.17;;;2.03;;
19969;SDS011;10146;47.754;9.566;2022-07-18T00:55:12;2.33;;;2.13;;
19969;SDS011;10146;47.754;9.566;2022-07-18T00:57:39;2.40;;;2.20;;
19969;SDS011;10146;47.754;9.566;2022-07-18T01:00:06;3.53;;;2.03;;
19969;SDS011;10146;47.754;9.566;2022-07-18T01:02:52;3.47;;;2.00;;
19969;SDS011;10146;47.754;9.566;2022-07-18T01:05:18;2.95;;;2.03;;
19969;SDS011;10146;47.754;9.566;2022-07-18T01:07:44;2.88;;;2.20;;
19969;SDS011;10146;47.754;9.566;2022-07-18T01:10:10;2.63;;;2.05;;
19969;SDS011;10146;47.754;9.566;2022-07-18T01:12:35;2.30;;;2.20;;
19969;SDS011;10146;47.754;9.566;2022-07-18T01:15:02;2.28;;;2.08;;
19969;SDS011;10146;47.754;9.566;2022-07-18T01:17:29;2.25;;;2.05;;
19969;SDS011;10146;47.754;9.566;2022-07-18T01:19:54;2.13;;;1.92;;
19969;SDS011;10146;47.754;9.566;2022-07-18T01:22:20;2.63;;;2.28;;
19969;SDS011;10146;47.754;9.566;2022-07-18T01:24:46;2.22;;;2.03;;
19969;SDS011;10146;47.754;9.566;2022-07-18T01:27:13;2.67;;;2.22;;
19969;SDS011;10146;47.754;9.566;2022-07-18T01:29:40;3.05;;;2.25;;
19969;SDS011;10146;47.754;9.566;2022-07-18T01:32:07;2.30;;;2.00;;
19969;SDS011;10146;47.754;9.566;2022-07-18T01:34:33;2.75;;;2.50;;
19969;SDS011;10146;47.754;9.566;2022-07-18T01:37:00;3.38;;;2.63;;
19969;SDS011;10146;47.754;9.566;2022-07-18T01:39:26;2.45;;;2.25;;
19969;SDS011;10146;47.754;9.566;2022-07-18T01:41:58;2.40;;;2.20;;
19969;SDS011;10146;47.754;9.566;2022-07-18T01:44:26;2.72;;;2.53;;
19969;SDS011;10146;47.754;9.566;2022-07-18T01:46:53;2.47;;;2.28;;
19969;SDS011;10146;47.754;9.566;2022-07-18T01:49:18;2.33;;;2.13;;
19969;SDS011;10146;47.754;9.566;2022-07-18T01:51:45;3.80;;;2.20;;
19969;SDS011;10146;47.754;9.566;2022-07-18T01:54:11;5.13;;;2.40;;
19969;SDS011;10146;47.754;9.566;2022-07-18T01:56:37;2.78;;;2.08;;
19969;SDS011;10146;47.754;9.566;2022-07-18T01:59:03;3.05;;;2.38;;
19969;SDS011;10146;47.754;9.566;2022-07-18T02:01:28;2.20;;;2.00;;
19969;SDS011;10146;47.754;9.566;2022-07-18T02:03:54;2.50;;;2.17;;
19969;SDS011;10146;47.754;9.566;2022-07-18T02:06:20;3.10;;;2.20;;
19969;SDS011;10146;47.754;9.566;2022-07-18T02:08:45;2.90;;;2.15;;
19969;SDS011;10146;47.754;9.566;2022-07-18T02:11:11;2.35;;;2.15;;
19969;SDS011;10146;47.754;9.566;2022-07-18T02:13:37;3.50;;;2.60;;
19969;SDS011;10146;47.754;9.566;2022-07-18T02:16:02;3.03;;;2.50;;
19969;SDS011;10146;47.754;9.566;2022-07-18T02:18:28;2.83;;;2.38;;
19969;SDS011;10146;47.754;9.566;2022-07-18T02:21:00;4.53;;;2.30;;
19969;SDS011;10146;47.754;9.566;2022-07-18T02:23:27;2.85;;;2.38;;
19969;SDS011;10146;47.754;9.566;2022-07-18T02:25:52;2.42;;;2.22;;
19969;SDS011;10146;47.754;9.566;2022-07-18T02:28:18;2.65;;;2.35;;
19969;SDS011;10146;47.754;9.566;2022-07-18T02:30:44;3.67;;;2.55;;
19969;SDS011;10146;47.754;9.566;2022-07-18T02:33:11;3.15;;;1.98;;
19969;SDS011;10146;47.754;9.566;2022-07-18T02:35:36;2.45;;;2.25;;
19969;SDS011;10146;47.754;9.566;2022-07-18T02:38:02;3.85;;;2.15;;
19969;SDS011;10146;47.754;9.566;2022-07-18T02:40:28;3.22;;;2.35;;
19969;SDS011;10146;47.754;9.566;2022-07-18T02:42:54;2.35;;;2.15;;
19969;SDS011;10146;47.754;9.566;2022-07-18T02:45:19;4.50;;;2.25;;
19969;SDS011;10146;47.754;9.566;2022-07-18T02:47:45;2.60;;;2.40;;
19969;SDS011;10146;47.754;9.566;2022-07-18T02:50:11;2.92;;;2.20;;
19969;SDS011;10146;47.754;9.566;2022-07-18T02:52:38;3.97;;;2.42;;
19969;SDS011;10146;47.754;9.566;2022-07-18T02:55:05;2.17;;;1.98;;
19969;SDS011;10146;47.754;9.566;2022-07-18T02:57:31;2.95;;;2.22;;
19969;SDS011;10146;47.754;9.566;2022-07-18T02:59:56;2.55;;;2.35;;
19969;SDS011;10146;47.754;9.566;2022-07-18T03:02:22;3.10;;;2.45;;
19969;SDS011;10146;47.754;9.566;2022-07-18T03:04:48;5.53;;;2.85;;
19969;SDS011;10146;47.754;9.566;2022-07-18T03:07:14;2.60;;;2.40;;
19969;SDS011;10146;47.754;9.566;2022-07-18T03:09:39;2.67;;;2.47;;
19969;SDS011;10146;47.754;9.566;2022-07-18T03:12:05;2.97;;;2.25;;
19969;SDS011;10146;47.754;9.566;2022-07-18T03:14:30;2.80;;;2.20;;
19969;SDS011;10146;47.754;9.566;2022-07-18T03:16:56;2.55;;;2.35;;
19969;SDS011;10146;47.754;9.566;2022-07-18T03:19:22;2.70;;;2.50;;
19969;SDS011;10146;47.754;9.566;2022-07-18T03:21:47;2.40;;;2.30;;
19969;SDS011;10146;47.754;9.566;2022-07-18T03:24:13;2.53;;;2.33;;
19969;SDS011;10146;47.754;9.566;2022-07-18T03:26:39;3.25;;;2.50;;
19969;SDS011;10146;47.754;9.566;2022-07-18T03:29:05;2.58;;;2.38;;
19969;SDS011;10146;47.754;9.566;2022-07-18T03:31:31;2.40;;;2.20;;
19969;SDS011;10146;47.754;9.566;2022-07-18T03:33:57;2.40;;;2.30;;
19969;SDS011;10146;47.754;9.566;2022-07-18T03:36:22;2.90;;;2.70;;
19969;SDS011;10146;47.754;9.566;2022-07-18T03:38:48;2.78;;;2.58;;
19969;SDS011;10146;47.754;9.566;2022-07-18T03:41:14;2.80;;;2.60;;
19969;SDS011;10146;47.754;9.566;2022-07-18T03:43:39;2.40;;;2.20;;
19969;SDS011;10146;47.754;9.566;2022-07-18T03:46:06;3.85;;;2.83;;
19969;SDS011;10146;47.754;9.566;2022-07-18T03:48:32;2.50;;;2.30;;
19969;SDS011;10146;47.754;9.566;2022-07-18T03:50:58;2.70;;;2.50;;
19969;SDS011;10146;47.754;9.566;2022-07-18T03:53:24;2.72;;;2.53;;
19969;SDS011;10146;47.754;9.566;2022-07-18T03:55:50;3.30;;;2.80;;
19969;SDS011;10146;47.754;9.566;2022-07-18T03:58:16;3.25;;;2.50;;
19969;SDS011;10146;47.754;9.566;2022-07-18T04:00:41;2.67;;;2.42;;
19969;SDS011;10146;47.754;9.566;2022-07-18T04:03:07;2.85;;;2.60;;
19969;SDS011;10146;47.754;9.566;2022-07-18T04:05:33;3.03;;;2.60;;
19969;SDS011;10146;47.754;9.566;2022-07-18T04:07:58;2.75;;;2.50;;
19969;SDS011;10146;47.754;9.566;2022-07-18T04:10:24;3.58;;;2.60;;
19969;SDS011;10146;47.754;9.566;2022-07-18T04:12:54;6.10;;;2.80;;
19969;SDS011;10146;47.754;9.566;2022-07-18T04:15:21;4.10;;;2.63;;
19969;SDS011;10146;47.754;9.566;2022-07-18T04:17:48;4.45;;;2.83;;
19969;SDS011;10146;47.754;9.566;2022-07-18T04:20:15;2.92;;;2.60;;
19969;SDS011;10146;47.754;9.566;2022-07-18T04:22:46;3.22;;;2.72;;
19969;SDS011;10146;47.754;9.566;2022-07-18T04:25:18;2.83;;;2.63;;
19969;SDS011;10146;47.754;9.566;2022-07-18T04:27:46;3.30;;;2.58;;
19969;SDS011;10146;47.754;9.566;2022-07-18T04:30:12;2.95;;;2.58;;
19969;SDS011;10146;47.754;9.566;2022-07-18T04:32:39;3.97;;;2.83;;
19969;SDS011;10146;47.754;9.566;2022-07-18T04:35:06;3.00;;;2.53;;
19969;SDS011;10146;47.754;9.566;2022-07-18T04:37:32;3.08;;;2.85;;
19969;SDS011;10146;47.754;9.566;2022-07-18T04:39:58;3.20;;;2.58;;
19969;SDS011;10146;47.754;9.566;2022-07-18T04:42:27;3.00;;;2.53;;
19969;SDS011;10146;47.754;9.566;2022-07-18T04:44:55;3.13;;;2.72;;
19969;SDS011;10146;47.754;9.566;2022-07-18T04:47:21;3.38;;;2.83;;
19969;SDS011;10146;47.754;9.566;2022-07-18T04:49:46;2.80;;;2.60;;
19969;SDS011;10146;47.754;9.566;2022-07-18T04:52:12;4.53;;;2.90;;
19969;SDS011;10146;47.754;9.566;2022-07-18T04:54:38;3.63;;;2.97;;
19969;SDS011;10146;47.754;9.566;2022-07-18T04:57:03;3.20;;;2.67;;
19969;SDS011;10146;47.754;9.566;2022-07-18T04:59:29;4.15;;;2.80;;
19969;SDS011;10146;47.754;9.566;2022-07-18T05:01:54;3.05;;;2.60;;
19969;SDS011;10146;47.754;9.566;2022-07-18T05:04:20;2.85;;;2.63;;
19969;SDS011;10146;47.754;9.566;2022-07-18T05:06:45;3.05;;;2.85;;
19969;SDS011;10146;47.754;9.566;2022-07-18T05:09:11;3.13;;;2.83;;
19969;SDS011;10146;47.754;9.566;2022-07-18T05:11:37;3.38;;;3.08;;
19969;SDS011;10146;47.754;9.566;2022-07-18T05:14:02;3.28;;;2.97;;
19969;SDS011;10146;47.754;9.566;2022-07-18T05:16:28;4.43;;;2.75;;
19969;SDS011;10146;47.754;9.566;2022-07-18T05:18:54;6.00;;;3.28;;
19969;SDS011;10146;47.754;9.566;2022-07-18T05:21:19;3.33;;;3.03;;
19969;SDS011;10146;47.754;9.566;2022-07-18T05:23:45;3.22;;;2.88;;
19969;SDS011;10146;47.754;9.566;2022-07-18T05:26:11;4.85;;;3.10;;
19969;SDS011;10146;47.754;9.566;2022-07-18T05:28:37;3.35;;;2.70;;
19969;SDS011;10146;47.754;9.566;2022-07-18T05:31:03;3.47;;;3.08;;
19969;SDS011;10146;47.754;9.566;2022-07-18T05:33:28;3.85;;;3.45;;
19969;SDS011;10146;47.754;9.566;2022-07-18T05:35:54;3.60;;;3.30;;
19969;SDS011;10146;47.754;9.566;2022-07-18T05:38:20;4.50;;;3.28;;
19969;SDS011;10146;47.754;9.566;2022-07-18T05:40:46;4.80;;;3.40;;
19969;SDS011;10146;47.754;9.566;2022-07-18T05:43:11;4.82;;;3.63;;
19969;SDS011;10146;47.754;9.566;2022-07-18T05:45:37;9.67;;;3.60;;
19969;SDS011;10146;47.754;9.566;2022-07-18T05:48:03;4.97;;;3.38;;
19969;SDS011;10146;47.754;9.566;2022-07-18T05:50:29;4.93;;;3.08;;
19969;SDS011;10146;47.754;9.566;2022-07-18T05:52:55;5.55;;;3.55;;
19969;SDS011;10146;47.754;9.566;2022-07-18T05:55:20;5.03;;;3.00;;
19969;SDS011;10146;47.754;9.566;2022-07-18T05:57:46;4.47;;;3.15;;
19969;SDS011;10146;47.754;9.566;2022-07-18T06:00:13;3.63;;;3.33;;
19969;SDS011;10146;47.754;9.566;2022-07-18T06:02:39;4.65;;;2.92;;
19969;SDS011;10146;47.754;9.566;2022-07-18T06:05:05;4.20;;;3.10;;
19969;SDS011;10146;47.754;9.566;2022-07-18T06:07:32;3.17;;;2.88;;
19969;SDS011;10146;47.754;9.566;2022-07-18T06:09:57;4.53;;;2.83;;
19969;SDS011;10146;47.754;9.566;2022-07-18T06:12:23;5.43;;;3.20;;
19969;SDS011;10146;47.754;9.566;2022-07-18T06:14:49;3.97;;;3.30;;
19969;SDS011;10146;47.754;9.566;2022-07-18T06:17:14;3.38;;;2.90;;
19969;SDS011;10146;47.754;9.566;2022-07-18T06:19:40;4.38;;;2.78;;
19969;SDS011;10146;47.754;9.566;2022-07-18T06:22:07;3.38;;;2.58;;
19969;SDS011;10146;47.754;9.566;2022-07-18T06:24:33;3.10;;;2.78;;
19969;SDS011;10146;47.754;9.566;2022-07-18T06:26:59;5.43;;;3.10;;
19969;SDS011;10146;47.754;9.566;2022-07-18T06:29:24;3.90;;;3.15;;
19969;SDS011;10146;47.754;9.566;2022-07-18T06:31:53;3.47;;;2.92;;
19969;SDS011;10146;47.754;9.566;2022-07-18T06:34:18;7.43;;;2.75;;
19969;SDS011;10146;47.754;9.566;2022-07-18T06:36:44;5.63;;;3.20;;
19969;SDS011;10146;47.754;9.566;2022-07-18T06:39:10;3.45;;;2.60;;
19969;SDS011;10146;47.754;9.566;2022-07-18T06:41:39;5.75;;;3.03;;
19969;SDS011;10146;47.754;9.566;2022-07-18T06:44:05;4.82;;;2.80;;
19969;SDS011;10146;47.754;9.566;2022-07-18T06:46:31;5.22;;;2.67;;
19969;SDS011;10146;47.754;9.566;2022-07-18T06:48:57;2.95;;;2.50;;
19969;SDS011;10146;47.754;9.566;2022-07-18T06:51:22;5.60;;;2.67;;
19969;SDS011;10146;47.754;9.566;2022-07-18T06:53:49;5.13;;;3.13;;
19969;SDS011;10146;47.754;9.566;2022-07-18T06:56:16;5.10;;;2.80;;
19969;SDS011;10146;47.754;9.566;2022-07-18T06:58:42;3.55;;;2.83;;
19969;SDS011;10146;47.754;9.566;2022-07-18T07:01:13;3.67;;;2.50;;
19969;SDS011;10146;47.754;9.566;2022-07-18T07:03:40;4.32;;;2.60;;
19969;SDS011;10146;47.754;9.566;2022-07-18T07:06:05;3.22;;;2.65;;
19969;SDS011;10146;47.754;9.566;2022-07-18T07:08:31;4.38;;;3.30;;
19969;SDS011;10146;47.754;9.566;2022-07-18T07:10:57;3.42;;;2.65;;
19969;SDS011;10146;47.754;9.566;2022-07-18T07:13:22;4.35;;;2.55;;
19969;SDS011;10146;47.754;9.566;2022-07-18T07:15:48;3.33;;;3.03;;
19969;SDS011;10146;47.754;9.566;2022-07-18T07:18:14;4.13;;;2.60;;
19969;SDS011;10146;47.754;9.566;2022-07-18T07:20:39;3.22;;;2.92;;
19969;SDS011;10146;47.754;9.566;2022-07-18T07:23:05;3.97;;;3.05;;
19969;SDS011;10146;47.754;9.566;2022-07-18T07:25:33;3.47;;;2.75;;
19969;SDS011;10146;47.754;9.566;2022-07-18T07:27:59;5.95;;;3.08;;
19969;SDS011;10146;47.754;9.566;2022-07-18T07:30:25;4.22;;;2.90;;
19969;SDS011;10146;47.754;9.566;2022-07-18T07:32:51;3.10;;;2.70;;
19969;SDS011;10146;47.754;9.566;2022-07-18T07:35:17;4.18;;;3.17;;
19969;SDS011;10146;47.754;9.566;2022-07-18T07:37:46;3.05;;;2.72;;
19969;SDS011;10146;47.754;9.566;2022-07-18T07:40:22;3.15;;;2.85;;
19969;SDS011;10146;47.754;9.566;2022-07-18T07:42:50;3.72;;;3.17;;
19969;SDS011;10146;47.754;9.566;2022-07-18T07:45:16;3.58;;;3.28;;
19969;SDS011;10146;47.754;9.566;2022-07-18T07:47:42;3.40;;;3.10;;
19969;SDS011;10146;47.754;9.566;2022-07-18T07:50:09;4.55;;;3.60;;
19969;SDS011;10146;47.754;9.566;2022-07-18T07:52:36;4.25;;;3.30;;
19969;SDS011;10146;47.754;9.566;2022-07-18T07:55:03;3.20;;;2.90;;
19969;SDS011;10146;47.754;9.566;2022-07-18T07:57:32;4.63;;;3.50;;
19969;SDS011;10146;47.754;9.566;2022-07-18T07:59:57;4.30;;;3.30;;
19969;SDS011;10146;47.754;9.566;2022-07-18T08:02:23;5.32;;;3.20;;
19969;SDS011;10146;47.754;9.566;2022-07-18T08:04:49;4.35;;;3.33;;
19969;SDS011;10146;47.754;9.566;2022-07-18T08:07:15;4.47;;;3.20;;
19969;SDS011;10146;47.754;9.566;2022-07-18T08:09:41;4.32;;;3.28;;
19969;SDS011;10146;47.754;9.566;2022-07-18T08:12:07;4.03;;;3.10;;
19969;SDS011;10146;47.754;9.566;2022-07-18T08:14:32;5.28;;;3.30;;
19969;SDS011;10146;47.754;9.566;2022-07-18T08:17:00;4.95;;;3.20;;
19969;SDS011;10146;47.754;9.566;2022-07-18T08:19:25;6.50;;;3.30;;
19969;SDS011;10146;47.754;9.566;2022-07-18T08:21:51;4.97;;;3.70;;
19969;SDS011;10146;47.754;9.566;2022-07-18T08:24:16;3.97;;;3.25;;
19969;SDS011;10146;47.754;9.566;2022-07-18T08:26:42;4.13;;;3.05;;
19969;SDS011;10146;47.754;9.566;2022-07-18T08:29:08;4.03;;;3.10;;
19969;SDS011;10146;47.754;9.566;2022-07-18T08:31:34;5.85;;;3.33;;
19969;SDS011;10146;47.754;9.566;2022-07-18T08:33:59;5.75;;;3.30;;
19969;SDS011;10146;47.754;9.566;2022-07-18T08:36:25;4.80;;;3.30;;
19969;SDS011;10146;47.754;9.566;2022-07-18T08:38:51;4.93;;;3.75;;
19969;SDS011;10146;47.754;9.566;2022-07-18T08:41:17;3.90;;;3.20;;
19969;SDS011;10146;47.754;9.566;2022-07-18T08:43:45;4.68;;;3.03;;
19969;SDS011;10146;47.754;9.566;2022-07-18T08:46:11;3.67;;;3.20;;
19969;SDS011;10146;47.754;9.566;2022-07-18T08:48:38;4.40;;;3.22;;
19969;SDS011;10146;47.754;9.566;2022-07-18T08:51:05;4.70;;;3.30;;
19969;SDS011;10146;47.754;9.566;2022-07-18T08:53:31;3.60;;;3.30;;
19969;SDS011;10146;47.754;9.566;2022-07-18T08:55:59;5.40;;;3.60;;
19969;SDS011;10146;47.754;9.566;2022-07-18T08:58:24;4.28;;;3.38;;
19969;SDS011;10146;47.754;9.566;2022-07-18T09:00:50;8.18;;;4.25;;
19969;SDS011;10146;47.754;9.566;2022-07-18T09:03:16;5.05;;;3.30;;
19969;SDS011;10146;47.754;9.566;2022-07-18T09:05:42;3.38;;;3.08;;
19969;SDS011;10146;47.754;9.566;2022-07-18T09:08:15;3.85;;;3.15;;
19969;SDS011;10146;47.754;9.566;2022-07-18T09:13:29;3.75;;;3.17;;
19969;SDS011;10146;47.754;9.566;2022-07-18T09:16:08;3.90;;;3.08;;
19969;SDS011;10146;47.754;9.566;2022-07-18T09:18:38;5.63;;;3.13;;
19969;SDS011;10146;47.754;9.566;2022-07-18T09:21:15;3.50;;;3.20;;
19969;SDS011;10146;47.754;9.566;2022-07-18T09:23:46;3.13;;;2.90;;
19969;SDS011;10146;47.754;9.566;2022-07-18T09:26:17;3.13;;;2.92;;
19969;SDS011;10146;47.754;9.566;2022-07-18T09:29:10;5.43;;;3.38;;
19969;SDS011;10146;47.754;9.566;2022-07-18T09:31:40;3.90;;;3.30;;
19969;SDS011;10146;47.754;9.566;2022-07-18T09:34:31;4.28;;;3.60;;
19969;SDS011;10146;47.754;9.566;2022-07-18T09:37:01;3.70;;;3.40;;
19969;SDS011;10146;47.754;9.566;2022-07-18T09:39:26;4.80;;;3.78;;
19969;SDS011;10146;47.754;9.566;2022-07-18T09:41:52;4.13;;;3.30;;
19969;SDS011;10146;47.754;9.566;2022-07-18T09:44:18;6.05;;;3.88;;
19969;SDS011;10146;47.754;9.566;2022-07-18T09:47:01;5.32;;;3.78;;
19969;SDS011;10146;47.754;9.566;2022-07-18T09:49:29;3.97;;;3.67;;
19969;SDS011;10146;47.754;9.566;2022-07-18T09:52:02;5.20;;;3.60;;
19969;SDS011;10146;47.754;9.566;2022-07-18T09:54:39;5.18;;;3.50;;
19969;SDS011;10146;47.754;9.566;2022-07-18T09:57:06;3.72;;;3.30;;
19969;SDS011;10146;47.754;9.566;2022-07-18T09:59:32;3.45;;;3.10;;
19969;SDS011;10146;47.754;9.566;2022-07-18T10:02:00;4.13;;;3.05;;
19969;SDS011;10146;47.754;9.566;2022-07-18T10:04:27;3.60;;;2.92;;
19969;SDS011;10146;47.754;9.566;2022-07-18T10:06:53;2.92;;;2.72;;
19969;SDS011;10146;47.754;9.566;2022-07-18T10:09:19;4.90;;;3.08;;
19969;SDS011;10146;47.754;9.566;2022-07-18T10:11:45;2.60;;;2.40;;
19969;SDS011;10146;47.754;9.566;2022-07-18T10:14:11;4.82;;;3.05;;
19969;SDS011;10146;47.754;9.566;2022-07-18T10:16:37;4.03;;;3.35;;
19969;SDS011;10146;47.754;9.566;2022-07-18T10:19:03;3.17;;;2.70;;
19969;SDS011;10146;47.754;9.566;2022-07-18T10:21:29;3.72;;;2.85;;
19969;SDS011;10146;47.754;9.566;2022-07-18T10:23:56;3.67;;;2.88;;
19969;SDS011;10146;47.754;9.566;2022-07-18T10:26:26;2.88;;;2.53;;
19969;SDS011;10146;47.754;9.566;2022-07-18T10:31:21;3.00;;;2.67;;
19969;SDS011;10146;47.754;9.566;2022-07-18T10:33:49;4.30;;;2.85;;
19969;SDS011;10146;47.754;9.566;2022-07-18T10:47:09;5.43;;;2.88;;
19969;SDS011;10146;47.754;9.566;2022-07-18T10:57:28;5.00;;;2.70;;
19969;SDS011;10146;47.754;9.566;2022-07-18T10:59:58;2.53;;;2.33;;
19969;SDS011;10146;47.754;9.566;2022-07-18T11:19:19;7.20;;;3.40;;
19969;SDS011;10146;47.754;9.566;2022-07-18T11:24:02;3.67;;;2.60;;
19969;SDS011;10146;47.754;9.566;2022-07-18T11:26:32;3.17;;;2.50;;
19969;SDS011;10146;47.754;9.566;2022-07-18T11:34:23;2.28;;;2.08;;
19969;SDS011;10146;47.754;9.566;2022-07-18T11:36:49;2.45;;;2.08;;
19969;SDS011;10146;47.754;9.566;2022-07-18T11:39:16;2.72;;;2.22;;
19969;SDS011;10146;47.754;9.566;2022-07-18T11:41:55;4.03;;;2.10;;
19969;SDS011;10146;47.754;9.566;2022-07-18T11:44:21;4.18;;;2.20;;
19969;SDS011;10146;47.754;9.566;2022-07-18T11:47:00;2.30;;;1.90;;
19969;SDS011;10146;47.754;9.566;2022-07-18T11:49:34;3.05;;;2.22;;
19969;SDS011;10146;47.754;9.566;2022-07-18T11:52:01;2.33;;;2.10;;
19969;SDS011;10146;47.754;9.566;2022-07-18T11:54:26;2.58;;;1.90;;
19969;SDS011;10146;47.754;9.566;2022-07-18T11:56:54;2.53;;;1.80;;
19969;SDS011;10146;47.754;9.566;2022-07-18T11:59:20;1.60;;;1.50;;
19969;SDS011;10146;47.754;9.566;2022-07-18T12:01:47;3.80;;;1.90;;
19969;SDS011;10146;47.754;9.566;2022-07-18T12:04:22;3.75;;;1.90;;
19969;SDS011;10146;47.754;9.566;2022-07-18T12:09:44;3.17;;;2.00;;
19969;SDS011;10146;47.754;9.566;2022-07-18T12:12:10;1.90;;;1.80;;
19969;SDS011;10146;47.754;9.566;2022-07-18T12:14:37;2.53;;;1.88;;
19969;SDS011;10146;47.754;9.566;2022-07-18T12:17:03;2.97;;;1.63;;
19969;SDS011;10146;47.754;9.566;2022-07-18T12:19:37;3.20;;;1.80;;
19969;SDS011;10146;47.754;9.566;2022-07-18T12:22:08;4.05;;;1.90;;
19969;SDS011;10146;47.754;9.566;2022-07-18T12:32:22;3.03;;;1.83;;
19969;SDS011;10146;47.754;9.566;2022-07-18T12:37:27;2.28;;;1.40;;
19969;SDS011;10146;47.754;9.566;2022-07-18T12:39:55;1.60;;;1.50;;
19969;SDS011;10146;47.754;9.566;2022-07-18T12:42:32;2.53;;;1.67;;
19969;SDS011;10146;47.754;9.566;2022-07-18T12:45:00;2.92;;;1.33;;
19969;SDS011;10146;47.754;9.566;2022-07-18T12:47:26;3.17;;;1.40;;
19969;SDS011;10146;47.754;9.566;2022-07-18T12:49:52;1.83;;;1.50;;
19969;SDS011;10146;47.754;9.566;2022-07-18T12:52:18;3.75;;;1.63;;
19969;SDS011;10146;47.754;9.566;2022-07-18T12:54:44;2.50;;;1.65;;
19969;SDS011;10146;47.754;9.566;2022-07-18T12:57:11;1.55;;;1.42;;
19969;SDS011;10146;47.754;9.566;2022-07-18T12:59:36;1.73;;;1.45;;
19969;SDS011;10146;47.754;9.566;2022-07-18T13:02:03;2.75;;;1.70;;
19969;SDS011;10146;47.754;9.566;2022-07-18T13:04:29;1.50;;;1.40;;
19969;SDS011;10146;47.754;9.566;2022-07-18T13:06:55;2.53;;;1.50;;
19969;SDS011;10146;47.754;9.566;2022-07-18T13:09:20;2.03;;;1.80;;
19969;SDS011;10146;47.754;9.566;2022-07-18T13:11:47;1.65;;;1.55;;
19969;SDS011;10146;47.754;9.566;2022-07-18T13:14:16;3.17;;;1.83;;
19969;SDS011;10146;47.754;9.566;2022-07-18T13:16:42;4.53;;;2.10;;
19969;SDS011;10146;47.754;9.566;2022-07-18T13:19:10;1.90;;;1.80;;
19969;SDS011;10146;47.754;9.566;2022-07-18T13:21:37;3.90;;;1.85;;
19969;SDS011;10146;47.754;9.566;2022-07-18T13:24:02;2.30;;;1.73;;
19969;SDS011;10146;47.754;9.566;2022-07-18T13:26:28;1.77;;;1.65;;
19969;SDS011;10146;47.754;9.566;2022-07-18T13:28:54;2.28;;;2.08;;
19969;SDS011;10146;47.754;9.566;2022-07-18T13:31:20;2.10;;;1.90;;
19969;SDS011;10146;47.754;9.566;2022-07-18T13:33:45;1.88;;;1.60;;
19969;SDS011;10146;47.754;9.566;2022-07-18T13:36:15;1.80;;;1.40;;
19969;SDS011;10146;47.754;9.566;2022-07-18T13:38:42;4.28;;;2.30;;
19969;SDS011;10146;47.754;9.566;2022-07-18T13:41:08;2.70;;;1.60;;
19969;SDS011;10146;47.754;9.566;2022-07-18T13:43:34;2.47;;;1.45;;
19969;SDS011;10146;47.754;9.566;2022-07-18T13:46:04;1.90;;;1.48;;
19969;SDS011;10146;47.754;9.566;2022-07-18T13:48:30;3.05;;;1.80;;
19969;SDS011;10146;47.754;9.566;2022-07-18T13:50:55;2.47;;;1.60;;
19969;SDS011;10146;47.754;9.566;2022-07-18T13:53:21;1.80;;;1.55;;
19969;SDS011;10146;47.754;9.566;2022-07-18T13:55:47;1.90;;;1.70;;
19969;SDS011;10146;47.754;9.566;2022-07-18T13:58:13;1.70;;;1.60;;
19969;SDS011;10146;47.754;9.566;2022-07-18T14:00:38;2.22;;;1.80;;
19969;SDS011;10146;47.754;9.566;2022-07-18T14:03:04;2.90;;;1.58;;
19969;SDS011;10146;47.754;9.566;2022-07-18T14:05:31;2.60;;;1.48;;
19969;SDS011;10146;47.754;9.566;2022-07-18T14:07:56;2.50;;;1.58;;
19969;SDS011;10146;47.754;9.566;2022-07-18T14:10:22;2.63;;;1.60;;
19969;SDS011;10146;47.754;9.566;2022-07-18T14:12:48;3.72;;;1.77;;
19969;SDS011;10146;47.754;9.566;2022-07-18T14:15:13;2.28;;;1.60;;
19969;SDS011;10146;47.754;9.566;2022-07-18T14:17:39;1.45;;;1.30;;
19969;SDS011;10146;47.754;9.566;2022-07-18T14:20:05;2.58;;;1.50;;
19969;SDS011;10146;47.754;9.566;2022-07-18T14:22:33;2.75;;;1.70;;
19969;SDS011;10146;47.754;9.566;2022-07-18T14:24:59;1.85;;;1.67;;
19969;SDS011;10146;47.754;9.566;2022-07-18T14:27:25;1.90;;;1.40;;
19969;SDS011;10146;47.754;9.566;2022-07-18T14:29:50;2.28;;;1.35;;
19969;SDS011;10146;47.754;9.566;2022-07-18T14:32:16;1.90;;;1.70;;
19969;SDS011;10146;47.754;9.566;2022-07-18T14:34:42;3.00;;;1.80;;
19969;SDS011;10146;47.754;9.566;2022-07-18T14:37:07;1.73;;;1.42;;
19969;SDS011;10146;47.754;9.566;2022-07-18T14:39:33;4.22;;;1.50;;
19969;SDS011;10146;47.754;9.566;2022-07-18T14:41:58;2.10;;;1.73;;
19969;SDS011;10146;47.754;9.566;2022-07-18T14:44:24;2.58;;;1.50;;
19969;SDS011;10146;47.754;9.566;2022-07-18T14:46:52;2.47;;;1.67;;
19969;SDS011;10146;47.754;9.566;2022-07-18T14:49:17;2.95;;;1.85;;
19969;SDS011;10146;47.754;9.566;2022-07-18T14:51:43;2.08;;;1.80;;
19969;SDS011;10146;47.754;9.566;2022-07-18T14:54:09;3.53;;;1.83;;
19969;SDS011;10146;47.754;9.566;2022-07-18T14:56:36;5.07;;;1.80;;
19969;SDS011;10146;47.754;9.566;2022-07-18T14:59:02;2.80;;;1.73;;
19969;SDS011;10146;47.754;9.566;2022-07-18T15:01:28;1.52;;;1.42;;
19969;SDS011;10146;47.754;9.566;2022-07-18T15:03:56;2.75;;;1.45;;
19969;SDS011;10146;47.754;9.566;2022-07-18T15:06:22;1.95;;;1.35;;
19969;SDS011;10146;47.754;9.566;2022-07-18T15:08:48;1.50;;;1.40;;
19969;SDS011;10146;47.754;9.566;2022-07-18T15:11:14;1.55;;;1.45;;
19969;SDS011;10146;47.754;9.566;2022-07-18T15:13:43;1.60;;;1.50;;
19969;SDS011;10146;47.754;9.566;2022-07-18T15:16:12;1.48;;;1.38;;
19969;SDS011;10146;47.754;9.566;2022-07-18T15:18:38;2.00;;;1.63;;
19969;SDS011;10146;47.754;9.566;2022-07-18T15:21:04;3.10;;;1.40;;
19969;SDS011;10146;47.754;9.566;2022-07-18T15:23:30;2.03;;;1.50;;
19969;SDS011;10146;47.754;9.566;2022-07-18T15:25:55;1.50;;;1.40;;
19969;SDS011;10146;47.754;9.566;2022-07-18T15:28:21;2.47;;;1.77;;
19969;SDS011;10146;47.754;9.566;2022-07-18T15:30:47;3.95;;;1.92;;
19969;SDS011;10146;47.754;9.566;2022-07-18T15:33:14;2.47;;;1.50;;
19969;SDS011;10146;47.754;9.566;2022-07-18T15:35:41;1.60;;;1.33;;
19969;SDS011;10146;47.754;9.566;2022-07-18T15:38:07;1.88;;;1.27;;
19969;SDS011;10146;47.754;9.566;2022-07-18T15:40:32;1.70;;;1.60;;
19969;SDS011;10146;47.754;9.566;2022-07-18T15:42:58;1.60;;;1.50;;
19969;SDS011;10146;47.754;9.566;2022-07-18T15:45:24;4.07;;;1.63;;
19969;SDS011;10146;47.754;9.566;2022-07-18T15:47:49;3.00;;;1.67;;